Time;durP1;ratioP1;P1;durP2;ratioP2;P2;SDS_P1;SDS_P2;PMS_P1;PMS_P2;Temp;Humidity;BMP_temperature;BMP_pressure;BME280_temperature;BME280_humidity;BME280_pressure;Samples;Min_cycle;Max_cycle;Signal;HPM_P1;HPM_P2
2024/01/11 00:00:56;;;;;;;24.60;9.00;;;;;;;;;;5030194;28;20032;-62
2024/01/11 00:03:22;;;;;;;31.37;11.00;;;;;;;;;;5030673;28;20109;-62
2024/01/11 00:05:47;;;;;;;29.97;10.93;;;;;;;;;;5030487;28;20048;-62
2024/01/11 00:08:13;;;;;;;29.23;10.93;;;;;;;;;;5030851;28;20032;-62
2024/01/11 00:10:38;;;;;;;28.63;10.67;;;;;;;;;;5031161;28;20033;-63
2024/01/11 00:13:04;;;;;;;21.40;8.00;;;;;;;;;;5011991;28;20022;-62
2024/01/11 00:15:29;;;;;;;32.83;11.10;;;;;;;;;;5014518;28;20041;-62
2024/01/11 00:17:54;;;;;;;31.97;12.23;;;;;;;;;;5030927;28;20061;-62
2024/01/11 00:20:19;;;;;;;29.40;11.10;;;;;;;;;;5030432;28;20490;-63
2024/01/11 00:22:45;;;;;;;28.77;10.87;;;;;;;;;;5030417;28;20612;-63
2024/01/11 00:25:10;;;;;;;24.23;9.30;;;;;;;;;;5030738;28;20029;-63
2024/01/11 00:27:35;;;;;;;30.63;10.80;;;;;;;;;;5016094;28;20116;-62
2024/01/11 00:30:01;;;;;;;30.30;11.27;;;;;;;;;;5029039;28;20021;-62
2024/01/11 00:32:26;;;;;;;34.07;11.97;;;;;;;;;;5030882;28;20032;-62
2024/01/11 00:34:52;;;;;;;30.90;11.50;;;;;;;;;;5030574;28;20052;-65
2024/01/11 00:37:17;;;;;;;36.97;12.63;;;;;;;;;;5030037;28;20051;-66
2024/01/11 00:39:43;;;;;;;31.73;11.30;;;;;;;;;;5029738;28;20339;-66
2024/01/11 00:42:10;;;;;;;35.07;11.40;;;;;;;;;;5029990;28;20094;-65
2024/01/11 00:44:35;;;;;;;34.57;12.87;;;;;;;;;;5029862;28;20504;-66
2024/01/11 00:47:01;;;;;;;36.00;12.47;;;;;;;;;;5030152;28;20267;-66
2024/01/11 00:49:26;;;;;;;37.23;12.93;;;;;;;;;;5029363;28;20426;-65
2024/01/11 00:51:51;;;;;;;31.43;11.90;;;;;;;;;;5029886;28;20021;-66
2024/01/11 00:54:16;;;;;;;36.40;13.93;;;;;;;;;;5029737;28;20486;-65
2024/01/11 00:56:42;;;;;;;33.53;12.80;;;;;;;;;;5028960;28;20025;-66
2024/01/11 00:59:07;;;;;;;37.93;13.23;;;;;;;;;;5028526;28;20028;-66
2024/01/11 01:01:32;;;;;;;39.30;13.33;;;;;;;;;;5028440;28;20029;-66
2024/01/11 01:03:58;;;;;;;38.03;12.83;;;;;;;;;;5030020;28;20121;-66
2024/01/11 01:06:23;;;;;;;38.47;13.30;;;;;;;;;;5030039;28;20367;-66
2024/01/11 01:08:48;;;;;;;40.87;13.47;;;;;;;;;;5029592;28;20064;-65
2024/01/11 01:11:14;;;;;;;37.07;12.80;;;;;;;;;;5029586;28;20510;-65
2024/01/11 01:13:39;;;;;;;38.77;12.50;;;;;;;;;;5028028;28;20111;-66
2024/01/11 01:16:05;;;;;;;33.10;12.37;;;;;;;;;;5028215;28;20037;-66
2024/01/11 01:18:30;;;;;;;35.83;12.87;;;;;;;;;;5029429;28;20104;-66
2024/01/11 01:20:55;;;;;;;42.67;13.43;;;;;;;;;;5028590;28;20076;-66
2024/01/11 01:23:21;;;;;;;36.63;12.47;;;;;;;;;;5029725;28;20405;-65
2024/01/11 01:25:46;;;;;;;36.97;13.83;;;;;;;;;;5029090;28;20557;-66
2024/01/11 01:28:11;;;;;;;44.90;14.93;;;;;;;;;;5028157;28;20044;-66
2024/01/11 01:30:36;;;;;;;36.23;12.87;;;;;;;;;;5028563;28;20023;-66
2024/01/11 01:33:02;;;;;;;41.03;13.63;;;;;;;;;;5028131;28;20029;-65
2024/01/11 01:35:27;;;;;;;40.17;13.07;;;;;;;;;;5029429;28;20453;-65
2024/01/11 01:37:52;;;;;;;38.73;14.20;;;;;;;;;;5029719;28;20025;-66
2024/01/11 01:40:17;;;;;;;42.60;14.27;;;;;;;;;;5029285;28;20029;-65
2024/01/11 01:42:44;;;;;;;38.20;14.00;;;;;;;;;;5028877;28;20036;-65
2024/01/11 01:45:09;;;;;;;41.20;14.27;;;;;;;;;;5028976;28;20124;-65
2024/01/11 01:47:34;;;;;;;37.33;13.90;;;;;;;;;;5028898;28;20862;-65
2024/01/11 01:50:00;;;;;;;40.20;14.73;;;;;;;;;;5028209;28;20143;-65
2024/01/11 01:52:25;;;;;;;44.93;14.13;;;;;;;;;;5028930;28;20397;-65
2024/01/11 01:54:50;;;;;;;44.50;14.33;;;;;;;;;;5029281;28;20027;-65
2024/01/11 01:57:16;;;;;;;41.00;14.17;;;;;;;;;;5028243;28;20024;-65
2024/01/11 01:59:43;;;;;;;45.07;14.53;;;;;;;;;;5028123;28;20037;-66
2024/01/11 02:02:09;;;;;;;45.30;15.63;;;;;;;;;;5029447;28;20047;-65
2024/01/11 02:04:34;;;;;;;45.47;16.63;;;;;;;;;;5028496;28;20283;-65
2024/01/11 02:07:00;;;;;;;50.13;16.03;;;;;;;;;;5029252;28;20259;-65
2024/01/11 02:09:26;;;;;;;42.53;14.03;;;;;;;;;;5029095;28;20076;-65
2024/01/11 02:11:52;;;;;;;44.23;14.30;;;;;;;;;;5031071;28;20112;-65
2024/01/11 02:14:18;;;;;;;42.57;14.60;;;;;;;;;;5032045;28;20029;-66
2024/01/11 02:16:44;;;;;;;51.23;14.50;;;;;;;;;;5031926;28;20276;-66
2024/01/11 02:19:12;;;;;;;50.03;16.43;;;;;;;;;;5034099;28;20622;-66
2024/01/11 02:21:37;;;;;;;52.80;16.73;;;;;;;;;;5032234;28;20402;-66
2024/01/11 02:24:05;;;;;;;48.57;15.80;;;;;;;;;;5030367;28;20656;-65
2024/01/11 02:26:30;;;;;;;48.50;15.80;;;;;;;;;;5031846;28;20271;-65
2024/01/11 02:28:56;;;;;;;50.87;16.63;;;;;;;;;;5032573;28;20052;-65
2024/01/11 02:31:21;;;;;;;47.37;16.80;;;;;;;;;;5031565;28;20397;-65
2024/01/11 02:33:47;;;;;;;51.03;16.27;;;;;;;;;;5032318;28;20029;-65
2024/01/11 02:36:13;;;;;;;55.50;16.77;;;;;;;;;;5032330;28;20021;-65
2024/01/11 02:38:39;;;;;;;56.77;18.80;;;;;;;;;;5032373;28;20044;-65
2024/01/11 02:41:05;;;;;;;52.73;17.03;;;;;;;;;;5032421;28;20547;-65
2024/01/11 02:43:30;;;;;;;57.87;17.53;;;;;;;;;;5032479;28;20284;-65
2024/01/11 02:45:56;;;;;;;57.93;16.70;;;;;;;;;;5031733;28;20037;-65
2024/01/11 02:48:21;;;;;;;46.03;16.30;;;;;;;;;;5032229;28;20030;-65
2024/01/11 02:50:47;;;;;;;48.40;16.83;;;;;;;;;;5032324;28;20033;-65
2024/01/11 02:53:12;;;;;;;55.83;16.87;;;;;;;;;;5031741;28;20026;-65
2024/01/11 02:55:38;;;;;;;55.63;16.97;;;;;;;;;;5031872;28;20113;-62
2024/01/11 02:58:03;;;;;;;45.87;16.40;;;;;;;;;;5031658;28;20021;-62
2024/01/11 03:00:28;;;;;;;59.80;17.53;;;;;;;;;;5030626;28;20070;-62
2024/01/11 03:02:53;;;;;;;56.80;17.17;;;;;;;;;;5031729;28;20048;-62
2024/01/11 03:05:19;;;;;;;52.73;17.30;;;;;;;;;;5031947;28;20040;-62
2024/01/11 03:07:44;;;;;;;61.33;17.53;;;;;;;;;;5032057;28;20021;-62
2024/01/11 03:10:09;;;;;;;55.50;17.97;;;;;;;;;;5031939;28;20108;-62
2024/01/11 03:12:35;;;;;;;62.60;18.43;;;;;;;;;;5031105;28;20068;-62
2024/01/11 03:15:00;;;;;;;63.70;18.47;;;;;;;;;;5032513;28;20082;-62
2024/01/11 03:17:25;;;;;;;54.83;17.50;;;;;;;;;;5032209;28;20029;-62
2024/01/11 03:19:51;;;;;;;57.60;17.87;;;;;;;;;;5032105;28;20080;-62
2024/01/11 03:22:17;;;;;;;60.57;19.03;;;;;;;;;;5031737;28;20056;-62
2024/01/11 03:24:42;;;;;;;60.83;19.00;;;;;;;;;;5031689;28;20292;-63
2024/01/11 03:27:07;;;;;;;54.37;18.87;;;;;;;;;;5032518;28;20041;-62
2024/01/11 03:29:33;;;;;;;67.53;18.37;;;;;;;;;;5031916;28;20014;-62
2024/01/11 03:31:58;;;;;;;58.33;19.47;;;;;;;;;;5031477;28;20010;-62
2024/01/11 03:34:23;;;;;;;61.83;19.10;;;;;;;;;;5032128;28;20104;-63
2024/01/11 03:36:49;;;;;;;59.00;18.30;;;;;;;;;;5029934;28;20041;-62
2024/01/11 03:39:14;;;;;;;74.97;19.73;;;;;;;;;;5031326;28;20032;-62
2024/01/11 03:41:45;;;;;;;66.93;20.03;;;;;;;;;;5031641;28;20021;-62
2024/01/11 03:44:10;;;;;;;68.28;21.02;;;;;;;;;;5031355;28;20025;-63
2024/01/11 03:46:36;;;;;;;73.60;18.90;;;;;;;;;;5031049;28;20694;-63
2024/01/11 03:49:02;;;;;;;65.30;19.30;;;;;;;;;;5031207;28;20640;-62
2024/01/11 03:51:27;;;;;;;65.90;18.67;;;;;;;;;;5031360;28;20017;-62
2024/01/11 03:53:52;;;;;;;63.23;19.27;;;;;;;;;;5030952;28;20414;-62
2024/01/11 03:56:17;;;;;;;80.47;20.73;;;;;;;;;;5031229;28;20079;-62
2024/01/11 03:58:44;;;;;;;70.30;19.53;;;;;;;;;;5030968;28;20021;-63
2024/01/11 04:01:10;;;;;;;63.80;18.77;;;;;;;;;;5011883;28;20018;-63
2024/01/11 04:03:35;;;;;;;62.50;19.70;;;;;;;;;;5030783;28;20272;-62
2024/01/11 04:06:01;;;;;;;61.07;18.47;;;;;;;;;;5030691;28;20071;-65
2024/01/11 04:08:26;;;;;;;61.50;19.97;;;;;;;;;;5030701;28;20012;-65
2024/01/11 04:10:51;;;;;;;62.63;19.13;;;;;;;;;;5030148;28;20102;-65
2024/01/11 04:13:16;;;;;;;63.50;18.17;;;;;;;;;;5030246;28;20630;-65
2024/01/11 04:15:42;;;;;;;65.90;20.43;;;;;;;;;;5030376;28;20044;-65
2024/01/11 04:18:07;;;;;;;66.80;20.17;;;;;;;;;;5030678;28;20017;-65
2024/01/11 04:20:32;;;;;;;73.70;21.73;;;;;;;;;;5029637;28;20502;-65
2024/01/11 04:22:58;;;;;;;63.83;19.53;;;;;;;;;;5028789;28;20028;-65
2024/01/11 04:25:23;;;;;;;70.03;20.37;;;;;;;;;;5028757;28;20504;-65
2024/01/11 04:27:48;;;;;;;68.47;19.93;;;;;;;;;;5028168;28;20028;-65
2024/01/11 04:30:14;;;;;;;71.93;20.13;;;;;;;;;;5029823;28;20075;-65
2024/01/11 04:32:39;;;;;;;70.53;20.10;;;;;;;;;;5030003;28;20400;-65
2024/01/11 04:35:04;;;;;;;66.23;19.80;;;;;;;;;;5029224;28;20087;-65
2024/01/11 04:37:30;;;;;;;72.53;20.53;;;;;;;;;;5029722;28;20021;-65
2024/01/11 04:39:55;;;;;;;74.43;19.80;;;;;;;;;;5029837;28;20108;-64
2024/01/11 04:42:20;;;;;;;64.73;18.47;;;;;;;;;;5029981;28;20013;-65
2024/01/11 04:44:45;;;;;;;63.33;19.70;;;;;;;;;;5029988;28;20017;-66
2024/01/11 04:47:11;;;;;;;66.13;20.30;;;;;;;;;;5029857;28;20641;-66
2024/01/11 04:49:36;;;;;;;75.60;21.00;;;;;;;;;;5030157;28;20128;-66
2024/01/11 04:52:01;;;;;;;78.03;21.73;;;;;;;;;;5029925;28;20022;-65
2024/01/11 04:54:26;;;;;;;62.50;21.83;;;;;;;;;;5029184;28;20367;-65
2024/01/11 04:56:52;;;;;;;85.23;23.07;;;;;;;;;;5029490;28;20025;-65
2024/01/11 04:59:17;;;;;;;83.43;22.43;;;;;;;;;;5028959;28;20048;-66
2024/01/11 05:01:45;;;;;;;82.30;22.40;;;;;;;;;;5029675;28;20021;-66
2024/01/11 05:04:10;;;;;;;82.50;22.83;;;;;;;;;;5029080;28;20064;-66
2024/01/11 05:06:35;;;;;;;83.10;22.73;;;;;;;;;;5029918;28;20284;-66
2024/01/11 05:09:00;;;;;;;76.00;23.47;;;;;;;;;;5029857;28;20028;-66
2024/01/11 05:11:26;;;;;;;74.83;21.37;;;;;;;;;;5029164;28;20010;-66
2024/01/11 05:13:52;;;;;;;74.83;21.53;;;;;;;;;;5029627;28;20381;-66
2024/01/11 05:16:21;;;;;;;75.77;22.00;;;;;;;;;;5029753;28;20024;-66
2024/01/11 05:18:46;;;;;;;85.63;23.47;;;;;;;;;;5028081;28;20013;-65
2024/01/11 05:21:11;;;;;;;86.97;22.37;;;;;;;;;;5028999;28;20907;-66
2024/01/11 05:23:37;;;;;;;82.20;22.50;;;;;;;;;;5029465;28;20042;-66
2024/01/11 05:26:02;;;;;;;82.07;22.23;;;;;;;;;;5027617;28;20048;-65
2024/01/11 05:28:27;;;;;;;87.20;22.67;;;;;;;;;;5028327;28;20100;-66
2024/01/11 05:30:53;;;;;;;86.90;23.00;;;;;;;;;;5029156;28;20021;-65
2024/01/11 05:33:18;;;;;;;80.77;22.70;;;;;;;;;;5029223;28;20009;-65
2024/01/11 05:35:43;;;;;;;90.10;23.70;;;;;;;;;;5029234;28;20441;-65
2024/01/11 05:38:08;;;;;;;82.80;23.20;;;;;;;;;;5029437;28;20017;-65
2024/01/11 05:40:34;;;;;;;85.00;22.63;;;;;;;;;;5028867;28;20033;-66
2024/01/11 05:42:59;;;;;;;84.60;23.03;;;;;;;;;;5029140;28;20466;-66
2024/01/11 05:45:24;;;;;;;80.77;22.27;;;;;;;;;;5028427;28;20529;-65
2024/01/11 05:47:49;;;;;;;92.07;23.47;;;;;;;;;;5032709;28;20025;-65
2024/01/11 05:50:15;;;;;;;107.97;26.30;;;;;;;;;;5033673;28;20025;-66
2024/01/11 05:52:40;;;;;;;115.80;25.23;;;;;;;;;;5032645;28;20029;-65
2024/01/11 05:55:05;;;;;;;113.73;24.60;;;;;;;;;;5032204;28;20040;-66
2024/01/11 05:57:31;;;;;;;128.53;26.80;;;;;;;;;;5032588;28;20482;-66
2024/01/11 05:59:56;;;;;;;129.07;27.60;;;;;;;;;;5031747;28;20029;-66
2024/01/11 06:02:22;;;;;;;143.70;28.03;;;;;;;;;;5032794;28;20021;-65
2024/01/11 06:04:49;;;;;;;110.10;25.00;;;;;;;;;;5031835;28;20029;-66
2024/01/11 06:07:14;;;;;;;111.70;25.63;;;;;;;;;;5032256;28;20284;-66
2024/01/11 06:09:39;;;;;;;107.77;26.53;;;;;;;;;;5031636;28;20248;-66
2024/01/11 06:12:05;;;;;;;111.87;25.87;;;;;;;;;;5031910;28;20385;-66
2024/01/11 06:14:30;;;;;;;102.93;25.07;;;;;;;;;;5032460;28;20057;-66
2024/01/11 06:16:55;;;;;;;107.27;26.73;;;;;;;;;;5032052;28;20037;-65
2024/01/11 06:19:20;;;;;;;109.63;26.07;;;;;;;;;;5029431;28;21339;-66
2024/01/11 06:21:46;;;;;;;112.03;26.63;;;;;;;;;;5031723;28;20028;-66
2024/01/11 06:24:12;;;;;;;111.03;25.07;;;;;;;;;;5032043;28;20056;-66
2024/01/11 06:26:37;;;;;;;102.93;25.40;;;;;;;;;;5032514;28;20280;-63
2024/01/11 06:29:02;;;;;;;107.30;24.40;;;;;;;;;;5032766;28;20017;-63
2024/01/11 06:31:27;;;;;;;115.57;27.93;;;;;;;;;;5033599;28;20051;-63
2024/01/11 06:33:53;;;;;;;114.40;26.10;;;;;;;;;;5032854;28;20343;-62
2024/01/11 06:36:18;;;;;;;114.40;25.30;;;;;;;;;;5032084;28;20025;-61
2024/01/11 06:38:43;;;;;;;115.23;25.70;;;;;;;;;;5032602;28;20028;-63
2024/01/11 06:41:08;;;;;;;107.63;25.90;;;;;;;;;;5033973;28;20394;-63
2024/01/11 06:43:34;;;;;;;119.73;26.90;;;;;;;;;;5032224;28;20021;-62
2024/01/11 06:46:03;;;;;;;114.57;26.97;;;;;;;;;;5035323;28;20481;-63
2024/01/11 06:48:28;;;;;;;107.60;25.63;;;;;;;;;;5031288;28;20080;-63
2024/01/11 06:50:54;;;;;;;107.20;25.57;;;;;;;;;;5032581;28;20248;-62
2024/01/11 06:53:19;;;;;;;107.00;25.07;;;;;;;;;;5031881;28;20473;-62
2024/01/11 06:55:44;;;;;;;97.93;25.97;;;;;;;;;;5032573;28;20064;-63
2024/01/11 06:58:09;;;;;;;107.40;24.47;;;;;;;;;;5031772;28;20429;-62
2024/01/11 07:00:35;;;;;;;106.87;25.83;;;;;;;;;;5031724;28;20022;-63
2024/01/11 07:03:01;;;;;;;104.13;25.27;;;;;;;;;;5031492;28;20028;-63
2024/01/11 07:05:26;;;;;;;112.40;24.03;;;;;;;;;;5032220;28;20048;-62
2024/01/11 07:07:51;;;;;;;107.97;24.03;;;;;;;;;;5032252;28;20830;-63
2024/01/11 07:10:17;;;;;;;111.90;25.90;;;;;;;;;;5031348;28;20014;-64
2024/01/11 07:12:42;;;;;;;104.97;25.30;;;;;;;;;;5031934;28;20032;-63
2024/01/11 07:15:08;;;;;;;112.20;26.00;;;;;;;;;;5032173;28;20024;-63
2024/01/11 07:17:33;;;;;;;94.33;24.57;;;;;;;;;;5033199;28;20032;-62
2024/01/11 07:19:59;;;;;;;109.07;24.83;;;;;;;;;;5032709;28;20095;-63
2024/01/11 07:22:24;;;;;;;105.03;23.93;;;;;;;;;;5029570;28;20041;-62
2024/01/11 07:24:49;;;;;;;116.20;27.37;;;;;;;;;;5030275;28;20030;-62
2024/01/11 07:27:15;;;;;;;118.13;26.30;;;;;;;;;;5031769;28;20033;-63
2024/01/11 07:29:40;;;;;;;121.33;27.23;;;;;;;;;;5031711;28;20028;-63
2024/01/11 07:32:05;;;;;;;106.83;27.23;;;;;;;;;;5030508;28;20133;-63
2024/01/11 07:34:30;;;;;;;102.37;24.57;;;;;;;;;;5031940;28;20041;-63
2024/01/11 07:36:58;;;;;;;112.93;24.23;;;;;;;;;;5031039;28;20029;-63
2024/01/11 07:39:24;;;;;;;119.13;27.77;;;;;;;;;;5031389;28;20029;-64
2024/01/11 07:41:49;;;;;;;117.33;29.63;;;;;;;;;;5031025;28;20305;-63
2024/01/11 07:44:15;;;;;;;102.93;25.70;;;;;;;;;;5031340;28;20053;-62
2024/01/11 07:46:40;;;;;;;99.10;23.90;;;;;;;;;;5031752;28;20025;-63
2024/01/11 07:49:05;;;;;;;109.30;24.90;;;;;;;;;;5028712;28;20100;-63
2024/01/11 07:51:31;;;;;;;100.13;23.63;;;;;;;;;;5031518;28;20070;-63
2024/01/11 07:53:56;;;;;;;119.30;27.07;;;;;;;;;;5030845;28;20021;-63
2024/01/11 07:56:22;;;;;;;119.23;26.57;;;;;;;;;;5031550;28;20036;-63
2024/01/11 07:58:47;;;;;;;109.07;26.63;;;;;;;;;;5031713;28;20059;-63
2024/01/11 08:01:12;;;;;;;109.30;27.00;;;;;;;;;;5031389;28;20045;-62
2024/01/11 08:03:38;;;;;;;118.63;29.10;;;;;;;;;;5031055;28;20033;-63
2024/01/11 08:06:03;;;;;;;121.10;27.53;;;;;;;;;;5031120;28;20575;-62
2024/01/11 08:08:28;;;;;;;121.60;25.83;;;;;;;;;;5030492;28;20060;-63
2024/01/11 08:10:54;;;;;;;118.33;28.43;;;;;;;;;;5030306;28;20025;-63
2024/01/11 08:13:21;;;;;;;135.53;28.73;;;;;;;;;;5031091;28;20020;-62
2024/01/11 08:15:46;;;;;;;119.40;28.37;;;;;;;;;;5031504;28;20018;-62
2024/01/11 08:18:12;;;;;;;118.70;27.97;;;;;;;;;;5030411;28;20299;-63
2024/01/11 08:20:38;;;;;;;123.03;28.00;;;;;;;;;;5030830;28;20371;-62
2024/01/11 08:23:03;;;;;;;125.70;27.23;;;;;;;;;;5030255;28;20022;-63
2024/01/11 08:25:28;;;;;;;121.60;28.37;;;;;;;;;;5030927;28;20160;-62
2024/01/11 08:27:54;;;;;;;112.63;26.40;;;;;;;;;;5030737;28;20040;-62
2024/01/11 08:30:19;;;;;;;131.90;28.90;;;;;;;;;;5031025;28;20478;-63
2024/01/11 08:32:45;;;;;;;115.83;27.63;;;;;;;;;;5030804;28;20017;-63
2024/01/11 08:35:11;;;;;;;129.37;28.87;;;;;;;;;;5029118;28;20032;-63
2024/01/11 08:37:36;;;;;;;162.03;29.57;;;;;;;;;;5030641;28;20030;-63
2024/01/11 08:40:04;;;;;;;141.73;30.10;;;;;;;;;;5030395;28;20263;-63
2024/01/11 08:42:29;;;;;;;122.50;28.53;;;;;;;;;;5030374;28;20104;-63
2024/01/11 08:44:55;;;;;;;135.60;28.53;;;;;;;;;;5030394;28;20362;-62
2024/01/11 08:47:20;;;;;;;122.60;28.00;;;;;;;;;;5030244;28;20434;-63
2024/01/11 08:49:45;;;;;;;129.30;28.57;;;;;;;;;;5029973;28;20024;-63
2024/01/11 08:52:10;;;;;;;118.70;28.47;;;;;;;;;;5029570;28;20022;-62
2024/01/11 08:54:36;;;;;;;165.67;31.30;;;;;;;;;;5029447;28;20029;-63
2024/01/11 08:57:01;;;;;;;133.37;27.23;;;;;;;;;;5030102;28;20033;-62
2024/01/11 08:59:27;;;;;;;123.87;27.37;;;;;;;;;;5029900;28;20021;-63
2024/01/11 09:01:52;;;;;;;130.37;28.00;;;;;;;;;;5030144;28;20033;-62
2024/01/11 09:04:18;;;;;;;115.67;25.77;;;;;;;;;;5030265;28;20040;-63
2024/01/11 09:06:43;;;;;;;120.57;27.13;;;;;;;;;;5030761;28;20101;-63
2024/01/11 09:09:10;;;;;;;129.73;27.87;;;;;;;;;;5028118;28;20517;-62
2024/01/11 09:11:35;;;;;;;123.27;26.83;;;;;;;;;;5030297;28;20485;-62
2024/01/11 09:14:02;;;;;;;113.90;26.00;;;;;;;;;;5029743;28;20268;-62
2024/01/11 09:16:27;;;;;;;120.83;24.57;;;;;;;;;;5029482;28;20025;-63
2024/01/11 09:18:53;;;;;;;117.90;27.43;;;;;;;;;;5029085;28;20256;-63
2024/01/11 09:21:18;;;;;;;120.33;27.53;;;;;;;;;;5033658;28;20021;-63
2024/01/11 09:23:43;;;;;;;112.80;24.83;;;;;;;;;;5033981;28;20033;-63
2024/01/11 09:26:09;;;;;;;112.07;26.80;;;;;;;;;;5033328;28;20372;-63
2024/01/11 09:28:34;;;;;;;122.53;26.63;;;;;;;;;;5030762;28;20032;-62
2024/01/11 09:30:59;;;;;;;113.07;25.73;;;;;;;;;;5034348;28;20450;-62
2024/01/11 09:33:25;;;;;;;104.47;27.17;;;;;;;;;;5033638;28;20021;-62
2024/01/11 09:35:51;;;;;;;119.97;28.03;;;;;;;;;;5033532;28;20563;-62
2024/01/11 09:38:16;;;;;;;120.77;29.27;;;;;;;;;;5033721;28;20033;-63
2024/01/11 09:40:41;;;;;;;107.77;26.03;;;;;;;;;;5034037;28;20026;-62
2024/01/11 09:43:09;;;;;;;108.93;26.73;;;;;;;;;;5033389;28;20030;-62
2024/01/11 09:45:35;;;;;;;101.13;26.37;;;;;;;;;;5031645;28;20108;-62
2024/01/11 09:48:02;;;;;;;99.30;26.37;;;;;;;;;;5033221;28;20339;-62
2024/01/11 09:50:28;;;;;;;107.10;27.93;;;;;;;;;;5033924;28;20044;-64
2024/01/11 09:52:53;;;;;;;105.53;26.77;;;;;;;;;;5033997;28;20079;-63
2024/01/11 09:55:19;;;;;;;108.37;27.37;;;;;;;;;;5033756;28;20021;-62
2024/01/11 09:57:45;;;;;;;108.67;26.13;;;;;;;;;;5033505;28;20528;-63
2024/01/11 10:00:13;;;;;;;106.60;24.73;;;;;;;;;;5031977;28;20025;-63
2024/01/11 10:02:39;;;;;;;122.23;26.40;;;;;;;;;;5033843;28;20021;-63
2024/01/11 10:05:05;;;;;;;106.00;27.17;;;;;;;;;;5033295;28;20091;-63
2024/01/11 10:07:30;;;;;;;104.00;27.13;;;;;;;;;;5033366;28;20021;-67
2024/01/11 10:09:55;;;;;;;115.40;27.73;;;;;;;;;;5033071;28;20032;-66
2024/01/11 10:12:24;;;;;;;99.87;25.97;;;;;;;;;;5033112;28;20100;-67
2024/01/11 10:14:50;;;;;;;104.83;26.23;;;;;;;;;;5033441;28;20436;-67
2024/01/11 10:17:15;;;;;;;106.40;25.63;;;;;;;;;;5033218;28;20021;-63
2024/01/11 10:19:40;;;;;;;98.77;26.40;;;;;;;;;;5032933;28;20045;-62
2024/01/11 10:22:06;;;;;;;108.53;27.80;;;;;;;;;;5032971;28;20079;-62
2024/01/11 10:24:31;;;;;;;121.70;28.50;;;;;;;;;;5032897;28;20466;-62
2024/01/11 10:26:58;;;;;;;101.80;26.90;;;;;;;;;;5033063;28;20037;-63
2024/01/11 10:29:27;;;;;;;107.80;27.17;;;;;;;;;;5032439;28;20106;-62
2024/01/11 10:31:52;;;;;;;103.00;27.03;;;;;;;;;;5032154;28;20033;-62
2024/01/11 10:34:18;;;;;;;109.73;27.37;;;;;;;;;;5028856;28;20009;-63
2024/01/11 10:36:43;;;;;;;103.37;27.53;;;;;;;;;;5033258;28;20023;-63
2024/01/11 10:39:10;;;;;;;99.00;25.77;;;;;;;;;;5033170;28;20033;-62
2024/01/11 10:41:39;;;;;;;105.47;26.93;;;;;;;;;;5033030;28;20052;-63
2024/01/11 10:44:06;;;;;;;105.37;25.83;;;;;;;;;;5033002;28;20444;-62
2024/01/11 10:46:33;;;;;;;98.07;25.70;;;;;;;;;;5032097;28;20025;-62
2024/01/11 10:48:59;;;;;;;88.20;25.30;;;;;;;;;;5032730;28;20086;-63
2024/01/11 10:51:25;;;;;;;89.30;24.77;;;;;;;;;;5032565;28;20458;-63
2024/01/11 10:53:51;;;;;;;91.53;24.70;;;;;;;;;;5033009;28;20416;-63
2024/01/11 10:56:16;;;;;;;88.37;23.60;;;;;;;;;;5032571;28;20021;-63
2024/01/11 10:58:43;;;;;;;95.23;24.30;;;;;;;;;;5032746;28;20037;-63
2024/01/11 11:01:12;;;;;;;90.67;25.03;;;;;;;;;;5032815;28;20449;-62
2024/01/11 11:03:38;;;;;;;88.90;23.60;;;;;;;;;;5031672;28;20028;-63
2024/01/11 11:06:04;;;;;;;95.80;24.43;;;;;;;;;;5032429;28;20052;-63
2024/01/11 11:08:29;;;;;;;81.13;22.73;;;;;;;;;;5032306;28;20014;-63
2024/01/11 11:11:00;;;;;;;98.03;26.07;;;;;;;;;;5032290;28;20024;-63
2024/01/11 11:13:26;;;;;;;98.47;25.52;;;;;;;;;;5029971;28;20096;-62
2024/01/11 11:15:52;;;;;;;79.50;23.40;;;;;;;;;;5032046;28;20105;-63
2024/01/11 11:18:18;;;;;;;84.93;24.07;;;;;;;;;;5031307;28;20020;-63
2024/01/11 11:20:43;;;;;;;89.00;25.70;;;;;;;;;;5031902;28;20494;-62
2024/01/11 11:23:10;;;;;;;90.67;24.80;;;;;;;;;;5032395;28;20017;-63
2024/01/11 11:25:36;;;;;;;90.37;26.33;;;;;;;;;;5031259;28;20048;-63
2024/01/11 11:28:04;;;;;;;93.33;25.20;;;;;;;;;;5031535;28;20018;-66
2024/01/11 11:30:29;;;;;;;85.60;25.30;;;;;;;;;;5030483;28;20010;-66
2024/01/11 11:32:54;;;;;;;84.57;23.87;;;;;;;;;;5029267;28;20023;-66
2024/01/11 11:35:20;;;;;;;83.10;24.50;;;;;;;;;;5031639;28;20021;-66
2024/01/11 11:37:45;;;;;;;72.57;22.57;;;;;;;;;;5030795;28;20092;-66
2024/01/11 11:40:11;;;;;;;66.87;24.10;;;;;;;;;;5031292;28;20547;-66
2024/01/11 11:42:36;;;;;;;80.60;22.97;;;;;;;;;;5030799;28;20053;-66
2024/01/11 11:45:02;;;;;;;76.97;23.10;;;;;;;;;;5030827;28;20018;-66
2024/01/11 11:47:35;;;;;;;78.73;22.90;;;;;;;;;;5031483;28;20025;-66
2024/01/11 11:50:04;;;;;;;71.50;22.03;;;;;;;;;;5030563;28;20025;-66
2024/01/11 11:52:32;;;;;;;74.27;22.40;;;;;;;;;;5030213;28;20025;-66
2024/01/11 11:54:58;;;;;;;79.13;22.23;;;;;;;;;;5030744;28;20068;-66
2024/01/11 11:57:24;;;;;;;74.70;22.60;;;;;;;;;;5031223;28;20021;-66
2024/01/11 11:59:49;;;;;;;75.20;22.97;;;;;;;;;;5030961;28;20105;-66
2024/01/11 12:02:16;;;;;;;70.30;20.83;;;;;;;;;;5031205;28;20462;-66
2024/01/11 12:04:46;;;;;;;65.20;19.83;;;;;;;;;;5031099;28;20028;-66
2024/01/11 12:07:11;;;;;;;66.60;21.83;;;;;;;;;;5030118;28;20017;-66
2024/01/11 12:09:37;;;;;;;77.13;23.13;;;;;;;;;;5030941;28;20071;-66
2024/01/11 12:12:03;;;;;;;70.87;22.03;;;;;;;;;;5030906;28;20049;-66
2024/01/11 12:14:28;;;;;;;71.33;20.27;;;;;;;;;;5030568;28;20021;-66
2024/01/11 12:16:59;;;;;;;69.80;22.30;;;;;;;;;;5030370;28;20374;-66
2024/01/11 12:19:25;;;;;;;68.82;20.60;;;;;;;;;;5030732;28;20744;-66
2024/01/11 12:21:50;;;;;;;68.67;21.23;;;;;;;;;;5031004;28;20030;-66
2024/01/11 12:24:16;;;;;;;67.80;20.00;;;;;;;;;;5031092;28;20028;-66
2024/01/11 12:26:42;;;;;;;62.87;21.13;;;;;;;;;;5030179;28;20028;-66
2024/01/11 12:29:08;;;;;;;66.40;20.47;;;;;;;;;;5030704;28;20044;-66
2024/01/11 12:31:35;;;;;;;63.57;21.40;;;;;;;;;;5030717;28;20066;-66
2024/01/11 12:34:00;;;;;;;61.57;20.13;;;;;;;;;;5029422;28;20466;-65
2024/01/11 12:36:25;;;;;;;68.63;21.40;;;;;;;;;;5030394;28;20075;-63
2024/01/11 12:38:51;;;;;;;69.13;21.40;;;;;;;;;;5030973;28;20080;-62
2024/01/11 12:41:17;;;;;;;66.90;19.30;;;;;;;;;;5030950;28;20489;-62
2024/01/11 12:43:42;;;;;;;66.17;18.97;;;;;;;;;;5030209;28;20029;-62
2024/01/11 12:46:07;;;;;;;60.53;20.10;;;;;;;;;;5030611;28;20013;-62
2024/01/11 12:48:33;;;;;;;61.37;20.00;;;;;;;;;;5029455;28;20020;-62
2024/01/11 12:50:58;;;;;;;61.33;19.70;;;;;;;;;;5029444;28;20079;-62
2024/01/11 12:53:24;;;;;;;65.10;19.93;;;;;;;;;;5030745;28;20017;-62
2024/01/11 12:56:02;;;;;;;63.70;19.57;;;;;;;;;;5030320;28;20024;-62
2024/01/11 12:58:27;;;;;;;56.33;18.57;;;;;;;;;;5029838;28;20113;-62
2024/01/11 13:00:52;;;;;;;60.20;21.37;;;;;;;;;;5027701;28;20084;-62
2024/01/11 13:03:20;;;;;;;61.07;20.53;;;;;;;;;;5030354;28;20508;-62
2024/01/11 13:05:45;;;;;;;67.43;19.43;;;;;;;;;;5030439;28;20462;-62
2024/01/11 13:08:10;;;;;;;70.47;21.23;;;;;;;;;;5029634;28;20025;-62
2024/01/11 13:10:36;;;;;;;66.73;20.87;;;;;;;;;;5030579;28;20025;-62
2024/01/11 13:13:02;;;;;;;54.87;20.17;;;;;;;;;;5029696;28;20025;-62
2024/01/11 13:15:29;;;;;;;63.57;20.33;;;;;;;;;;5030256;28;20021;-62
2024/01/11 13:17:54;;;;;;;65.53;21.53;;;;;;;;;;5029945;28;20033;-62
2024/01/11 13:20:19;;;;;;;61.67;19.50;;;;;;;;;;5029378;28;20103;-62
2024/01/11 13:22:45;;;;;;;63.63;19.93;;;;;;;;;;5030316;28;20026;-62
2024/01/11 13:25:10;;;;;;;62.47;20.10;;;;;;;;;;5030193;28;20068;-63
2024/01/11 13:27:35;;;;;;;56.13;18.97;;;;;;;;;;5030122;28;20450;-62
2024/01/11 13:30:00;;;;;;;62.17;20.20;;;;;;;;;;5030379;28;20121;-62
2024/01/11 13:32:26;;;;;;;52.90;19.13;;;;;;;;;;5029924;28;20080;-62
2024/01/11 13:34:52;;;;;;;61.83;18.47;;;;;;;;;;5029051;28;20772;-62
2024/01/11 13:37:18;;;;;;;60.07;17.93;;;;;;;;;;5030254;28;20083;-62
2024/01/11 13:39:43;;;;;;;57.47;17.27;;;;;;;;;;5030399;28;20026;-62
2024/01/11 13:42:09;;;;;;;66.67;20.50;;;;;;;;;;5030198;28;20120;-63
2024/01/11 13:44:34;;;;;;;59.60;18.97;;;;;;;;;;5029074;28;20466;-62
2024/01/11 13:47:00;;;;;;;62.03;19.53;;;;;;;;;;5029503;28;20033;-66
2024/01/11 13:49:25;;;;;;;62.07;19.97;;;;;;;;;;5029541;28;20022;-65
2024/01/11 13:51:50;;;;;;;63.20;20.23;;;;;;;;;;5029713;28;20033;-66
2024/01/11 13:54:16;;;;;;;66.93;20.60;;;;;;;;;;5029459;28;20466;-66
2024/01/11 13:56:42;;;;;;;64.50;21.57;;;;;;;;;;5029658;28;20094;-66
2024/01/11 13:59:07;;;;;;;65.93;23.13;;;;;;;;;;5028571;28;20044;-66
2024/01/11 14:01:32;;;;;;;65.67;23.27;;;;;;;;;;5028575;28;20090;-66
2024/01/11 14:03:58;;;;;;;63.00;20.90;;;;;;;;;;5029758;28;20111;-66